CheckWX is a tool to help pilots better visualize weather data.  It is not intended as a substitute for an official pre-flight weather briefing.

18:32:58 UTC

05U METAR
Eureka Airport
Eureka, Nevada, USA
Current

18 mins ago

K05U 221815Z AUTO 00000KT 10SM OVC021 M08/M15 A2997 RMK A01
Observed
Feb-22 @ 18:15 UTC
Visibility
10 SM
Flight Rules
MVFR
Cloud Levels
  • Overcast at 2,100' AGL
Temperature
-8°C / 18°F
Dewpoint
-15°C / 5°F
Humidity
58%
Altimeter
29.97" Hg
Pressure
1014.92 hPa
Previous

38 mins ago

K05U 221755Z AUTO 00000KT 10SM FEW016 OVC022 M08/M15 A2997 RMK A01
Observed
Feb-22 @ 17:55 UTC
Visibility
10 SM
Flight Rules
MVFR
Cloud Levels
  • Few at 1,600' AGL
  • Overcast at 2,200' AGL
Temperature
-8°C / 18°F
Dewpoint
-15°C / 5°F
Humidity
58%
Altimeter
29.97" Hg
Pressure
1014.92 hPa
Previous

58 mins ago

K05U 221735Z AUTO 00000KT 10SM OVC021 M09/M14 A2997 RMK A01
Observed
Feb-22 @ 17:35 UTC
Visibility
10 SM
Flight Rules
MVFR
Cloud Levels
  • Overcast at 2,100' AGL
Temperature
-9°C / 16°F
Dewpoint
-14°C / 7°F
Humidity
67%
Altimeter
29.97" Hg
Pressure
1014.92 hPa